This is the latest recevied weather packets stored in our database for station/object KE5KUL-13. If no packets are shown the sender has not sent any weather packets the latest 10 day(s).
| Time | Temp. | Humidity | Pressure | Rain* | Wind** | Luminosity | Snow |
|---|---|---|---|---|---|---|---|
| 1777778418 | 15.56° C | 32% | 1022.7 hPa | 0 mm | - | - | - |
| 1777777817 | 15.56° C | 32% | 1022.7 hPa | 0 mm | - | - | - |
| 1777777217 | 16.11° C | 31% | 1022.4 hPa | 0 mm | - | - | - |
| 1777776618 | 16.67° C | 30% | 1022.3 hPa | 0 mm | - | - | - |
| 1777776018 | 17.22° C | 29% | 1022 hPa | 0 mm | - | - | - |
| 1777775417 | 17.22° C | 28% | 1021.7 hPa | 0 mm | - | - | - |
| 1777774817 | 17.78° C | 27% | 1021.7 hPa | 0 mm | - | - | - |
| 1777773617 | 18.89° C | 26% | 1021.3 hPa | 0 mm | - | - | - |
| 1777773017 | 19.44° C | 25% | 1021.1 hPa | 0 mm | - | - | - |
| 1777767617 | 22.22° C | 20% | 1020.2 hPa | 0 mm | - | - | - |
| 1777764619 | 22.78° C | 19% | 1020.9 hPa | 0 mm | - | - | - |
| 1777761017 | 25.56° C | 16% | 1021.9 hPa | 0 mm | - | - | - |
| 1777759217 | 24.44° C | 16% | 1021.9 hPa | 0 mm | - | - | - |
| 1777758619 | 25° C | 18% | 1022.2 hPa | 0 mm | - | - | - |
| 1777758019 | 25° C | 16% | 1022.4 hPa | 0 mm | - | - | - |
| 1777757417 | 26.11° C | 16% | 1022.9 hPa | 0 mm | - | - | - |
| 1777756819 | 26.11° C | 16% | 1023.1 hPa | 0 mm | - | - | - |
| 1777755619 | 28.33° C | 15% | 1023.9 hPa | 0 mm | - | - | - |
| 1777755019 | 27.78° C | 16% | 1024.1 hPa | 0 mm | - | - | - |
| 1777753219 | 27.78° C | 15% | 1024.6 hPa | 0 mm | - | - | - |
| 1777752619 | 28.33° C | 16% | 1024.9 hPa | 0 mm | - | - | - |
| 1777752019 | 27.78° C | 15% | 1024.9 hPa | 0 mm | - | - | - |
| 1777751419 | 27.22° C | 17% | 1024.7 hPa | 0 mm | - | - | - |
| 1777750218 | 27.22° C | 16% | 1025.4 hPa | 0 mm | - | - | - |
| 1777749618 | 26.67° C | 16% | 1025.3 hPa | 0 mm | - | - | - |
* Rain latest hour (hover to see other rain measurements)
** Current wind speed in m/s (hover to see current wind gust speed)